»·PEaware :: N8PF KMYF-KSBA

N8PF :: KMYF-KSBA

FLIGHT INFORMATION

Flight Status: Arrived
Operator: Privately registered:
United States
More flights under this callsign
Pilot: Ben L. (6391)
Aircraft: CIRRUS VISIONJET
(SF50)
More flights by this aircraft type
Origin: KMYF Montgomery
United States
Destination: KSBA Santa Barbara Mun
United States
More flights between these airports :: More routes between these airports
Route: CWARD2 CWARD AVOLS V208 VTU VTU282 KWANG
File this flight plan on PilotEdge
Remarks: SANP36R TEC
Altitude:
(Current/Filed)
10,000ft
Speed:
(Current/Filed)
250kts
Departed: 02-Nov-19 12:54 PM
Arrived: 02-Nov-19 01:40 PM
Distance/Time
Traveled:
166nm/0:46
Distance/Time
To Go:
Arrived

Flight Plot

Page will automatically refresh every two minutes.

Flight plan parsing failed; only flown route is shown


Map Options




Map Legend


Flown Route
Filed Route
Departure Airport
Arrival Airport
Navaid (VOR, NDB)
Fix

Horizontal Profiles

Position Reports

Time Latitude Longitude Heading Altitude Ground
Speed
02-Nov-19 12:39 32.814006 -117.142952 335 405ft 0kts
02-Nov-19 12:40 32.814006 -117.142952 335 405ft 0kts
02-Nov-19 12:41 32.814006 -117.142952 335 405ft 0kts
02-Nov-19 12:42 32.814006 -117.142952 335 405ft 0kts
02-Nov-19 12:43 32.814006 -117.142952 335 405ft 0kts
02-Nov-19 12:44 32.814006 -117.142952 335 405ft 0kts
02-Nov-19 12:45 32.814006 -117.142952 335 405ft 0kts
02-Nov-19 12:46 32.814242 -117.142705 54 405ft 3kts
02-Nov-19 12:47 32.814792 -117.142663 329 405ft 0kts
02-Nov-19 12:48 32.814801 -117.142669 329 405ft 0kts
02-Nov-19 12:49 32.814784 -117.141826 113 405ft 11kts
02-Nov-19 12:50 32.812689 -117.136483 116 405ft 21kts
02-Nov-19 12:51 32.811160 -117.132888 86 405ft 6kts
02-Nov-19 12:52 32.812569 -117.131182 17 405ft 8kts
02-Nov-19 12:53 32.820270 -117.148389 296 1175ft 92kts
02-Nov-19 12:54 32.827305 -117.182972 281 3173ft 128kts
02-Nov-19 12:55 32.835495 -117.224992 281 5550ft 135kts
02-Nov-19 12:56 32.845221 -117.268806 281 7952ft 143kts
02-Nov-19 12:57 32.856578 -117.315650 281 10005ft 165kts
02-Nov-19 12:58 32.886417 -117.372215 308 10023ft 226kts
02-Nov-19 12:59 32.934875 -117.425658 316 10019ft 238kts
02-Nov-19 13:00 32.989121 -117.483713 316 10024ft 273kts
02-Nov-19 13:01 33.045633 -117.544271 317 10026ft 272kts
02-Nov-19 13:02 33.102008 -117.604796 317 10028ft 271kts
02-Nov-19 13:03 33.159506 -117.666612 317 10026ft 271kts
02-Nov-19 13:04 33.216327 -117.728173 320 10001ft 267kts
02-Nov-19 13:05 33.267868 -117.783516 319 9997ft 270kts
02-Nov-19 13:06 33.322191 -117.842234 319 9997ft 271kts
02-Nov-19 13:07 33.375298 -117.905265 290 9995ft 273kts
02-Nov-19 13:08 33.375551 -117.995664 263 9880ft 273kts
02-Nov-19 13:09 33.367021 -118.085975 263 9881ft 272kts
02-Nov-19 13:10 33.358224 -118.176206 263 9889ft 272kts
02-Nov-19 13:11 33.355491 -118.266319 277 9900ft 272kts
02-Nov-19 13:12 33.366786 -118.355544 277 9902ft 271kts
02-Nov-19 13:13 33.390292 -118.439219 305 9907ft 273kts
02-Nov-19 13:14 33.437909 -118.509286 309 9909ft 273kts
02-Nov-19 13:15 33.486616 -118.578727 309 9909ft 273kts
02-Nov-19 13:16 33.535395 -118.648388 309 9901ft 274kts
02-Nov-19 13:17 33.583506 -118.717226 309 9892ft 274kts
02-Nov-19 13:18 33.632245 -118.787111 309 10011ft 273kts
02-Nov-19 13:19 33.681230 -118.857450 309 10014ft 275kts
02-Nov-19 13:20 33.730329 -118.928090 309 10020ft 276kts
02-Nov-19 13:21 33.779299 -118.998516 312 10024ft 276kts
02-Nov-19 13:22 33.838093 -119.057755 321 10027ft 276kts
02-Nov-19 13:23 33.897955 -119.115420 321 10027ft 277kts
02-Nov-19 13:24 33.957792 -119.173127 321 10027ft 277kts
02-Nov-19 13:25 34.017566 -119.230863 321 10027ft 277kts
02-Nov-19 13:26 34.077369 -119.288767 320 10027ft 277kts
02-Nov-19 13:27 34.131312 -119.341035 320 9220ft 223kts
02-Nov-19 13:28 34.179707 -119.388078 320 8312ft 221kts
02-Nov-19 13:29 34.227507 -119.434569 319 7041ft 216kts
02-Nov-19 13:30 34.273494 -119.479388 319 6024ft 209kts
02-Nov-19 13:31 34.314825 -119.528377 299 6055ft 203kts
02-Nov-19 13:32 34.344645 -119.586521 299 5295ft 202kts
02-Nov-19 13:33 34.375687 -119.642121 304 4312ft 193kts
02-Nov-19 13:34 34.406716 -119.691379 300 3049ft 180kts
02-Nov-19 13:35 34.423032 -119.741406 280 1840ft 116kts
02-Nov-19 13:36 34.428086 -119.777120 274 1123ft 104kts
02-Nov-19 13:37 34.428552 -119.806936 264 572ft 89kts
02-Nov-19 13:38 34.427924 -119.835164 266 53ft 77kts
02-Nov-19 13:39 34.428285 -119.845976 61 17ft 8kts
02-Nov-19 13:40 34.428623 -119.845126 63 17ft 7kts
02-Nov-19 13:41 34.430318 -119.840885 64 17ft 14kts
02-Nov-19 13:42 34.431817 -119.836148 68 17ft 15kts
02-Nov-19 13:43 34.432589 -119.835600 71 17ft 0kts

Navigation Log

Ident Type
Flight plan parsing failed, navigation log unavailable